ロングイェールビーン の空港の天気 - METARとTAF

スヴァールバル空港 ( ENSB / LYR ) - スヴァールバル諸島・ヤンマイエン島 ロングイェールビーン
飛行場実況気象(Metar)
観測時間01/23 04:20 CET (01/23 03:20 UTC)
風向・風速東南東 8m/s
視程10km以上
天気現象
少しの雲 雲底高度 610m
全天の8割程度の雲 雲底高度 1920m
気温-2℃
湿度69%
気圧1016hPa
METARENSB 230320Z 12015KT 9999 FEW020 BKN063 M02/M07 Q1016 RMK WIND 1400FT 12019KT
過去の天気等 Google飛行場航空写真 Wunderground天気予報

過去48時間のMETAR

飛行場予報(TAF)
発表時間: -
TAF ENSB 2300/2324 12015KT 9999 FEW025 SCT050